sensor_id;sensor_type;location;lat;lon;timestamp;P1;durP1;ratioP1;P2;durP2;ratioP2
34836;SDS011;21053;50.848;4.652;2024-01-15T00:02:52;127.65;;;117.13;;
34836;SDS011;21053;50.848;4.652;2024-01-15T00:05:24;140.73;;;128.63;;
34836;SDS011;21053;50.848;4.652;2024-01-15T00:07:52;141.90;;;130.27;;
34836;SDS011;21053;50.848;4.652;2024-01-15T00:12:46;140.85;;;128.43;;
34836;SDS011;21053;50.848;4.652;2024-01-15T00:15:12;140.10;;;128.57;;
34836;SDS011;21053;50.848;4.652;2024-01-15T00:17:40;147.82;;;135.38;;
34836;SDS011;21053;50.848;4.652;2024-01-15T00:20:06;156.48;;;143.27;;
34836;SDS011;21053;50.848;4.652;2024-01-15T00:22:34;153.45;;;140.82;;
34836;SDS011;21053;50.848;4.652;2024-01-15T00:25:01;151.82;;;139.00;;
34836;SDS011;21053;50.848;4.652;2024-01-15T00:27:27;152.38;;;139.73;;
34836;SDS011;21053;50.848;4.652;2024-01-15T00:29:54;162.23;;;147.73;;
34836;SDS011;21053;50.848;4.652;2024-01-15T00:32:22;156.82;;;143.00;;
34836;SDS011;21053;50.848;4.652;2024-01-15T00:37:16;143.63;;;131.50;;
34836;SDS011;21053;50.848;4.652;2024-01-15T00:39:44;172.52;;;158.13;;
34836;SDS011;21053;50.848;4.652;2024-01-15T00:42:11;140.57;;;128.65;;
34836;SDS011;21053;50.848;4.652;2024-01-15T00:44:40;140.00;;;128.48;;
34836;SDS011;21053;50.848;4.652;2024-01-15T00:47:07;142.27;;;130.40;;
34836;SDS011;21053;50.848;4.652;2024-01-15T00:49:34;132.95;;;122.03;;
34836;SDS011;21053;50.848;4.652;2024-01-15T00:52:03;133.45;;;121.82;;
34836;SDS011;21053;50.848;4.652;2024-01-15T00:54:31;144.45;;;132.23;;
34836;SDS011;21053;50.848;4.652;2024-01-15T00:56:57;163.30;;;149.73;;
34836;SDS011;21053;50.848;4.652;2024-01-15T01:01:51;149.93;;;137.20;;
34836;SDS011;21053;50.848;4.652;2024-01-15T01:04:19;154.18;;;141.45;;
34836;SDS011;21053;50.848;4.652;2024-01-15T01:06:45;149.25;;;136.60;;
34836;SDS011;21053;50.848;4.652;2024-01-15T01:11:40;153.88;;;141.13;;
34836;SDS011;21053;50.848;4.652;2024-01-15T01:14:12;153.90;;;141.32;;
34836;SDS011;21053;50.848;4.652;2024-01-15T01:16:38;152.60;;;140.18;;
34836;SDS011;21053;50.848;4.652;2024-01-15T01:19:05;147.90;;;135.65;;
34836;SDS011;21053;50.848;4.652;2024-01-15T01:21:35;147.90;;;135.00;;
34836;SDS011;21053;50.848;4.652;2024-01-15T01:24:01;150.85;;;136.50;;
34836;SDS011;21053;50.848;4.652;2024-01-15T01:26:27;167.45;;;153.20;;
34836;SDS011;21053;50.848;4.652;2024-01-15T01:28:55;164.48;;;150.75;;
34836;SDS011;21053;50.848;4.652;2024-01-15T01:31:21;174.05;;;159.20;;
34836;SDS011;21053;50.848;4.652;2024-01-15T01:33:47;152.77;;;139.95;;
34836;SDS011;21053;50.848;4.652;2024-01-15T01:36:13;164.88;;;151.15;;
34836;SDS011;21053;50.848;4.652;2024-01-15T01:38:41;169.18;;;154.52;;
34836;SDS011;21053;50.848;4.652;2024-01-15T01:43:36;157.57;;;143.85;;
34836;SDS011;21053;50.848;4.652;2024-01-15T01:46:04;173.98;;;159.32;;
34836;SDS011;21053;50.848;4.652;2024-01-15T01:48:32;162.93;;;148.55;;
34836;SDS011;21053;50.848;4.652;2024-01-15T01:50:59;184.65;;;167.18;;
34836;SDS011;21053;50.848;4.652;2024-01-15T01:53:29;175.25;;;160.23;;
34836;SDS011;21053;50.848;4.652;2024-01-15T01:55:56;175.48;;;160.88;;
34836;SDS011;21053;50.848;4.652;2024-01-15T01:58:23;186.95;;;171.02;;
34836;SDS011;21053;50.848;4.652;2024-01-15T02:00:50;181.77;;;166.45;;
34836;SDS011;21053;50.848;4.652;2024-01-15T02:03:16;178.45;;;163.63;;
34836;SDS011;21053;50.848;4.652;2024-01-15T02:05:42;199.45;;;182.00;;
34836;SDS011;21053;50.848;4.652;2024-01-15T02:08:11;187.05;;;170.45;;
34836;SDS011;21053;50.848;4.652;2024-01-15T02:10:37;187.02;;;171.07;;
34836;SDS011;21053;50.848;4.652;2024-01-15T02:13:09;170.88;;;155.93;;
34836;SDS011;21053;50.848;4.652;2024-01-15T02:15:35;193.43;;;176.63;;
34836;SDS011;21053;50.848;4.652;2024-01-15T02:18:01;170.20;;;155.50;;
34836;SDS011;21053;50.848;4.652;2024-01-15T02:20:31;186.45;;;170.80;;
34836;SDS011;21053;50.848;4.652;2024-01-15T02:23:14;164.02;;;150.43;;
34836;SDS011;21053;50.848;4.652;2024-01-15T02:25:44;181.43;;;165.43;;
34836;SDS011;21053;50.848;4.652;2024-01-15T02:28:12;160.18;;;146.57;;
34836;SDS011;21053;50.848;4.652;2024-01-15T02:30:42;186.80;;;171.18;;
34836;SDS011;21053;50.848;4.652;2024-01-15T02:33:09;187.48;;;170.10;;
34836;SDS011;21053;50.848;4.652;2024-01-15T02:35:35;162.00;;;148.52;;
34836;SDS011;21053;50.848;4.652;2024-01-15T02:38:04;182.30;;;166.70;;
34836;SDS011;21053;50.848;4.652;2024-01-15T02:40:31;179.38;;;164.45;;
34836;SDS011;21053;50.848;4.652;2024-01-15T02:43:00;177.65;;;162.45;;
34836;SDS011;21053;50.848;4.652;2024-01-15T02:45:28;174.23;;;159.65;;
34836;SDS011;21053;50.848;4.652;2024-01-15T02:47:54;196.40;;;179.32;;
34836;SDS011;21053;50.848;4.652;2024-01-15T02:50:23;208.35;;;190.20;;
34836;SDS011;21053;50.848;4.652;2024-01-15T02:52:49;184.63;;;169.15;;
34836;SDS011;21053;50.848;4.652;2024-01-15T02:55:18;230.48;;;210.38;;
34836;SDS011;21053;50.848;4.652;2024-01-15T02:57:44;209.07;;;190.50;;
34836;SDS011;21053;50.848;4.652;2024-01-15T03:00:09;218.27;;;199.45;;
34836;SDS011;21053;50.848;4.652;2024-01-15T03:02:38;198.93;;;181.40;;
34836;SDS011;21053;50.848;4.652;2024-01-15T03:07:38;175.50;;;160.88;;
34836;SDS011;21053;50.848;4.652;2024-01-15T03:10:06;198.85;;;181.60;;
34836;SDS011;21053;50.848;4.652;2024-01-15T03:12:38;188.23;;;172.02;;
34836;SDS011;21053;50.848;4.652;2024-01-15T03:15:04;211.88;;;192.98;;
34836;SDS011;21053;50.848;4.652;2024-01-15T03:17:36;206.57;;;189.10;;
34836;SDS011;21053;50.848;4.652;2024-01-15T03:22:37;190.90;;;174.50;;
34836;SDS011;21053;50.848;4.652;2024-01-15T03:25:03;195.68;;;178.35;;
34836;SDS011;21053;50.848;4.652;2024-01-15T03:27:29;199.15;;;181.95;;
34836;SDS011;21053;50.848;4.652;2024-01-15T03:29:56;216.52;;;197.32;;
34836;SDS011;21053;50.848;4.652;2024-01-15T03:32:21;215.85;;;196.70;;
34836;SDS011;21053;50.848;4.652;2024-01-15T03:34:48;186.50;;;170.57;;
34836;SDS011;21053;50.848;4.652;2024-01-15T03:37:14;215.10;;;196.07;;
34836;SDS011;21053;50.848;4.652;2024-01-15T03:39:40;216.65;;;197.52;;
34836;SDS011;21053;50.848;4.652;2024-01-15T03:42:09;222.70;;;203.20;;
34836;SDS011;21053;50.848;4.652;2024-01-15T03:44:35;174.43;;;159.55;;
34836;SDS011;21053;50.848;4.652;2024-01-15T03:47:00;203.00;;;185.27;;
34836;SDS011;21053;50.848;4.652;2024-01-15T03:49:29;187.82;;;171.45;;
34836;SDS011;21053;50.848;4.652;2024-01-15T03:54:24;198.63;;;180.90;;
34836;SDS011;21053;50.848;4.652;2024-01-15T03:56:55;199.82;;;181.43;;
34836;SDS011;21053;50.848;4.652;2024-01-15T03:59:21;196.52;;;176.10;;
34836;SDS011;21053;50.848;4.652;2024-01-15T04:01:49;181.18;;;165.25;;
34836;SDS011;21053;50.848;4.652;2024-01-15T04:04:17;165.93;;;151.77;;
34836;SDS011;21053;50.848;4.652;2024-01-15T04:09:12;172.52;;;157.52;;
34836;SDS011;21053;50.848;4.652;2024-01-15T04:14:08;194.40;;;176.65;;
34836;SDS011;21053;50.848;4.652;2024-01-15T04:16:37;201.40;;;183.27;;
34836;SDS011;21053;50.848;4.652;2024-01-15T04:19:04;189.30;;;173.48;;
34836;SDS011;21053;50.848;4.652;2024-01-15T04:21:30;168.48;;;154.13;;
34836;SDS011;21053;50.848;4.652;2024-01-15T04:23:56;171.07;;;156.40;;
34836;SDS011;21053;50.848;4.652;2024-01-15T04:26:24;175.05;;;160.20;;
34836;SDS011;21053;50.848;4.652;2024-01-15T04:28:51;178.48;;;162.95;;
34836;SDS011;21053;50.848;4.652;2024-01-15T04:31:23;167.13;;;153.02;;
34836;SDS011;21053;50.848;4.652;2024-01-15T04:36:18;183.93;;;168.15;;
34836;SDS011;21053;50.848;4.652;2024-01-15T04:38:44;171.02;;;156.38;;
34836;SDS011;21053;50.848;4.652;2024-01-15T04:41:13;180.20;;;164.55;;
34836;SDS011;21053;50.848;4.652;2024-01-15T04:46:09;163.15;;;149.07;;
34836;SDS011;21053;50.848;4.652;2024-01-15T04:48:35;188.27;;;172.25;;
34836;SDS011;21053;50.848;4.652;2024-01-15T04:53:34;182.45;;;166.82;;
34836;SDS011;21053;50.848;4.652;2024-01-15T05:00:58;174.90;;;159.63;;
34836;SDS011;21053;50.848;4.652;2024-01-15T05:03:24;170.15;;;155.95;;
34836;SDS011;21053;50.848;4.652;2024-01-15T05:05:50;165.65;;;151.32;;
34836;SDS011;21053;50.848;4.652;2024-01-15T05:08:15;169.45;;;155.40;;
34836;SDS011;21053;50.848;4.652;2024-01-15T05:10:44;173.00;;;158.25;;
34836;SDS011;21053;50.848;4.652;2024-01-15T05:13:10;173.63;;;158.45;;
34836;SDS011;21053;50.848;4.652;2024-01-15T05:15:39;193.95;;;176.88;;
34836;SDS011;21053;50.848;4.652;2024-01-15T05:18:06;183.48;;;167.68;;
34836;SDS011;21053;50.848;4.652;2024-01-15T05:20:32;174.98;;;160.13;;
34836;SDS011;21053;50.848;4.652;2024-01-15T05:22:57;199.68;;;181.80;;
34836;SDS011;21053;50.848;4.652;2024-01-15T05:27:52;196.40;;;179.68;;
34836;SDS011;21053;50.848;4.652;2024-01-15T05:30:19;188.10;;;172.13;;
34836;SDS011;21053;50.848;4.652;2024-01-15T05:32:45;199.85;;;182.55;;
34836;SDS011;21053;50.848;4.652;2024-01-15T05:35:11;191.77;;;174.40;;
34836;SDS011;21053;50.848;4.652;2024-01-15T05:37:37;184.27;;;168.95;;
34836;SDS011;21053;50.848;4.652;2024-01-15T05:40:03;209.43;;;191.98;;
34836;SDS011;21053;50.848;4.652;2024-01-15T05:45:01;212.95;;;194.73;;
34836;SDS011;21053;50.848;4.652;2024-01-15T05:47:29;208.20;;;190.30;;
34836;SDS011;21053;50.848;4.652;2024-01-15T05:49:56;219.05;;;200.50;;
34836;SDS011;21053;50.848;4.652;2024-01-15T05:52:23;204.35;;;187.55;;
34836;SDS011;21053;50.848;4.652;2024-01-15T05:54:50;219.88;;;201.95;;
34836;SDS011;21053;50.848;4.652;2024-01-15T05:57:19;211.45;;;194.15;;
34836;SDS011;21053;50.848;4.652;2024-01-15T05:59:47;212.68;;;195.13;;
34836;SDS011;21053;50.848;4.652;2024-01-15T06:02:12;193.90;;;177.60;;
34836;SDS011;21053;50.848;4.652;2024-01-15T06:04:39;213.50;;;195.60;;
34836;SDS011;21053;50.848;4.652;2024-01-15T06:07:08;217.88;;;199.73;;
34836;SDS011;21053;50.848;4.652;2024-01-15T06:12:07;212.82;;;193.82;;
34836;SDS011;21053;50.848;4.652;2024-01-15T06:17:02;200.85;;;184.63;;
34836;SDS011;21053;50.848;4.652;2024-01-15T06:19:31;171.63;;;157.60;;
34836;SDS011;21053;50.848;4.652;2024-01-15T06:21:57;193.32;;;177.55;;
34836;SDS011;21053;50.848;4.652;2024-01-15T06:24:24;245.93;;;225.73;;
34836;SDS011;21053;50.848;4.652;2024-01-15T06:26:56;222.88;;;204.25;;
34836;SDS011;21053;50.848;4.652;2024-01-15T06:29:25;227.20;;;208.23;;
34836;SDS011;21053;50.848;4.652;2024-01-15T06:31:55;217.88;;;199.52;;
34836;SDS011;21053;50.848;4.652;2024-01-15T06:34:21;197.52;;;180.85;;
34836;SDS011;21053;50.848;4.652;2024-01-15T06:36:50;217.75;;;199.40;;
34836;SDS011;21053;50.848;4.652;2024-01-15T06:39:16;225.45;;;206.10;;
34836;SDS011;21053;50.848;4.652;2024-01-15T06:41:42;229.70;;;210.10;;
34836;SDS011;21053;50.848;4.652;2024-01-15T06:44:13;222.13;;;203.32;;
34836;SDS011;21053;50.848;4.652;2024-01-15T06:46:43;225.20;;;205.98;;
34836;SDS011;21053;50.848;4.652;2024-01-15T06:49:10;238.27;;;216.00;;
34836;SDS011;21053;50.848;4.652;2024-01-15T06:51:37;226.82;;;207.52;;
34836;SDS011;21053;50.848;4.652;2024-01-15T06:54:05;202.55;;;185.27;;
34836;SDS011;21053;50.848;4.652;2024-01-15T06:56:31;250.02;;;228.77;;
34836;SDS011;21053;50.848;4.652;2024-01-15T06:58:57;224.35;;;205.23;;
34836;SDS011;21053;50.848;4.652;2024-01-15T07:01:24;251.05;;;229.60;;
34836;SDS011;21053;50.848;4.652;2024-01-15T07:03:50;234.43;;;214.73;;
34836;SDS011;21053;50.848;4.652;2024-01-15T07:06:19;225.52;;;206.32;;
34836;SDS011;21053;50.848;4.652;2024-01-15T07:08:46;249.52;;;227.73;;
34836;SDS011;21053;50.848;4.652;2024-01-15T07:11:13;243.50;;;222.63;;
34836;SDS011;21053;50.848;4.652;2024-01-15T07:13:39;239.50;;;218.70;;
34836;SDS011;21053;50.848;4.652;2024-01-15T07:16:05;228.38;;;208.50;;
34836;SDS011;21053;50.848;4.652;2024-01-15T07:18:32;245.85;;;224.70;;
34836;SDS011;21053;50.848;4.652;2024-01-15T07:20:58;253.68;;;231.93;;
34836;SDS011;21053;50.848;4.652;2024-01-15T07:23:30;266.42;;;243.48;;
34836;SDS011;21053;50.848;4.652;2024-01-15T07:26:02;209.48;;;191.63;;
34836;SDS011;21053;50.848;4.652;2024-01-15T07:28:29;206.13;;;188.65;;
34836;SDS011;21053;50.848;4.652;2024-01-15T07:30:56;219.77;;;200.95;;
34836;SDS011;21053;50.848;4.652;2024-01-15T07:33:22;207.30;;;189.30;;
34836;SDS011;21053;50.848;4.652;2024-01-15T07:35:48;214.27;;;195.80;;
34836;SDS011;21053;50.848;4.652;2024-01-15T07:38:13;228.57;;;208.45;;
34836;SDS011;21053;50.848;4.652;2024-01-15T07:40:39;247.68;;;226.20;;
34836;SDS011;21053;50.848;4.652;2024-01-15T07:43:05;249.30;;;228.23;;
34836;SDS011;21053;50.848;4.652;2024-01-15T07:45:31;208.55;;;190.55;;
34836;SDS011;21053;50.848;4.652;2024-01-15T07:47:59;243.23;;;222.57;;
34836;SDS011;21053;50.848;4.652;2024-01-15T07:50:25;212.55;;;194.10;;
34836;SDS011;21053;50.848;4.652;2024-01-15T07:52:51;231.25;;;211.48;;
34836;SDS011;21053;50.848;4.652;2024-01-15T07:55:18;224.88;;;205.43;;
34836;SDS011;21053;50.848;4.652;2024-01-15T07:57:43;254.80;;;232.85;;
34836;SDS011;21053;50.848;4.652;2024-01-15T08:00:09;231.48;;;210.40;;
34836;SDS011;21053;50.848;4.652;2024-01-15T08:02:35;219.75;;;200.90;;
34836;SDS011;21053;50.848;4.652;2024-01-15T08:05:01;245.60;;;224.57;;
34836;SDS011;21053;50.848;4.652;2024-01-15T08:07:30;224.15;;;204.98;;
34836;SDS011;21053;50.848;4.652;2024-01-15T08:09:57;232.70;;;212.57;;
34836;SDS011;21053;50.848;4.652;2024-01-15T08:12:23;227.98;;;208.40;;
34836;SDS011;21053;50.848;4.652;2024-01-15T08:14:49;232.10;;;212.07;;
34836;SDS011;21053;50.848;4.652;2024-01-15T08:17:16;246.55;;;225.18;;
34836;SDS011;21053;50.848;4.652;2024-01-15T08:19:42;269.08;;;245.70;;
34836;SDS011;21053;50.848;4.652;2024-01-15T08:22:09;231.13;;;210.80;;
34836;SDS011;21053;50.848;4.652;2024-01-15T08:24:44;234.07;;;213.95;;
34836;SDS011;21053;50.848;4.652;2024-01-15T08:27:12;252.07;;;230.40;;
34836;SDS011;21053;50.848;4.652;2024-01-15T08:29:42;246.35;;;224.75;;
34836;SDS011;21053;50.848;4.652;2024-01-15T08:32:09;280.75;;;256.23;;
34836;SDS011;21053;50.848;4.652;2024-01-15T08:34:39;244.52;;;223.07;;
34836;SDS011;21053;50.848;4.652;2024-01-15T08:37:07;292.40;;;267.33;;
34836;SDS011;21053;50.848;4.652;2024-01-15T08:39:33;280.00;;;256.02;;
34836;SDS011;21053;50.848;4.652;2024-01-15T08:42:01;260.10;;;237.00;;
34836;SDS011;21053;50.848;4.652;2024-01-15T08:44:30;255.18;;;233.15;;
34836;SDS011;21053;50.848;4.652;2024-01-15T08:49:29;275.17;;;251.15;;
34836;SDS011;21053;50.848;4.652;2024-01-15T08:52:08;236.88;;;216.45;;
34836;SDS011;21053;50.848;4.652;2024-01-15T08:54:34;254.45;;;232.40;;
34836;SDS011;21053;50.848;4.652;2024-01-15T08:57:01;243.02;;;221.98;;
34836;SDS011;21053;50.848;4.652;2024-01-15T08:59:27;235.20;;;214.60;;
34836;SDS011;21053;50.848;4.652;2024-01-15T09:01:56;235.95;;;215.35;;
34836;SDS011;21053;50.848;4.652;2024-01-15T09:04:23;237.52;;;216.63;;
34836;SDS011;21053;50.848;4.652;2024-01-15T09:06:49;240.80;;;220.05;;
34836;SDS011;21053;50.848;4.652;2024-01-15T09:09:15;236.00;;;214.98;;
34836;SDS011;21053;50.848;4.652;2024-01-15T09:11:41;246.68;;;225.13;;
34836;SDS011;21053;50.848;4.652;2024-01-15T09:14:07;254.48;;;232.43;;
34836;SDS011;21053;50.848;4.652;2024-01-15T09:16:35;298.02;;;271.98;;
34836;SDS011;21053;50.848;4.652;2024-01-15T09:19:00;264.40;;;240.95;;
34836;SDS011;21053;50.848;4.652;2024-01-15T09:23:55;241.70;;;220.15;;
34836;SDS011;21053;50.848;4.652;2024-01-15T09:26:23;255.65;;;232.63;;
34836;SDS011;21053;50.848;4.652;2024-01-15T09:28:49;303.75;;;276.65;;
34836;SDS011;21053;50.848;4.652;2024-01-15T09:33:47;256.42;;;233.68;;
34836;SDS011;21053;50.848;4.652;2024-01-15T09:36:15;242.05;;;220.27;;
34836;SDS011;21053;50.848;4.652;2024-01-15T09:41:13;227.50;;;205.68;;
34836;SDS011;21053;50.848;4.652;2024-01-15T09:43:42;192.50;;;175.73;;
34836;SDS011;21053;50.848;4.652;2024-01-15T09:46:11;224.82;;;204.68;;
34836;SDS011;21053;50.848;4.652;2024-01-15T09:53:43;216.25;;;197.38;;
34836;SDS011;21053;50.848;4.652;2024-01-15T09:58:39;211.98;;;193.30;;
34836;SDS011;21053;50.848;4.652;2024-01-15T10:01:08;205.00;;;186.80;;
34836;SDS011;21053;50.848;4.652;2024-01-15T10:03:36;215.73;;;196.98;;
34836;SDS011;21053;50.848;4.652;2024-01-15T10:06:04;204.38;;;186.27;;
34836;SDS011;21053;50.848;4.652;2024-01-15T10:08:32;231.38;;;210.65;;
34836;SDS011;21053;50.848;4.652;2024-01-15T10:10:58;222.57;;;202.80;;
34836;SDS011;21053;50.848;4.652;2024-01-15T10:13:23;189.45;;;172.52;;
34836;SDS011;21053;50.848;4.652;2024-01-15T10:15:50;190.70;;;173.60;;
34836;SDS011;21053;50.848;4.652;2024-01-15T10:18:16;215.05;;;196.27;;
34836;SDS011;21053;50.848;4.652;2024-01-15T10:20:43;198.15;;;180.60;;
34836;SDS011;21053;50.848;4.652;2024-01-15T10:23:14;197.38;;;180.23;;
34836;SDS011;21053;50.848;4.652;2024-01-15T10:25:47;200.15;;;182.23;;
34836;SDS011;21053;50.848;4.652;2024-01-15T10:28:13;209.10;;;190.77;;
34836;SDS011;21053;50.848;4.652;2024-01-15T10:30:39;218.65;;;197.95;;
34836;SDS011;21053;50.848;4.652;2024-01-15T10:33:08;206.57;;;188.63;;
34836;SDS011;21053;50.848;4.652;2024-01-15T10:35:35;224.55;;;205.07;;
34836;SDS011;21053;50.848;4.652;2024-01-15T10:38:02;221.95;;;202.23;;
34836;SDS011;21053;50.848;4.652;2024-01-15T10:40:28;199.07;;;181.82;;
34836;SDS011;21053;50.848;4.652;2024-01-15T10:42:54;231.27;;;210.98;;
34836;SDS011;21053;50.848;4.652;2024-01-15T10:45:21;245.05;;;223.43;;
34836;SDS011;21053;50.848;4.652;2024-01-15T10:47:47;213.30;;;194.57;;
34836;SDS011;21053;50.848;4.652;2024-01-15T10:50:14;202.63;;;184.75;;
34836;SDS011;21053;50.848;4.652;2024-01-15T10:52:40;191.75;;;174.70;;
34836;SDS011;21053;50.848;4.652;2024-01-15T10:55:11;213.35;;;194.50;;
34836;SDS011;21053;50.848;4.652;2024-01-15T10:57:37;217.65;;;198.55;;
34836;SDS011;21053;50.848;4.652;2024-01-15T11:00:04;222.07;;;202.70;;
34836;SDS011;21053;50.848;4.652;2024-01-15T11:02:35;223.85;;;201.63;;
34836;SDS011;21053;50.848;4.652;2024-01-15T11:05:02;205.85;;;187.50;;
34836;SDS011;21053;50.848;4.652;2024-01-15T11:07:30;241.75;;;220.10;;
34836;SDS011;21053;50.848;4.652;2024-01-15T11:09:59;213.57;;;194.70;;
34836;SDS011;21053;50.848;4.652;2024-01-15T11:12:31;256.50;;;231.15;;
34836;SDS011;21053;50.848;4.652;2024-01-15T11:15:02;242.35;;;221.02;;
34836;SDS011;21053;50.848;4.652;2024-01-15T11:20:27;206.32;;;188.38;;
34836;SDS011;21053;50.848;4.652;2024-01-15T11:22:55;209.60;;;191.45;;
34836;SDS011;21053;50.848;4.652;2024-01-15T11:25:33;202.85;;;185.13;;
34836;SDS011;21053;50.848;4.652;2024-01-15T11:28:02;161.90;;;148.30;;
34836;SDS011;21053;50.848;4.652;2024-01-15T11:30:28;173.55;;;156.75;;
34836;SDS011;21053;50.848;4.652;2024-01-15T11:32:54;145.93;;;133.75;;
34836;SDS011;21053;50.848;4.652;2024-01-15T11:38:10;141.48;;;129.57;;
34836;SDS011;21053;50.848;4.652;2024-01-15T11:40:37;168.65;;;154.70;;
34836;SDS011;21053;50.848;4.652;2024-01-15T11:43:04;161.40;;;148.02;;
34836;SDS011;21053;50.848;4.652;2024-01-15T11:45:32;159.05;;;145.85;;
34836;SDS011;21053;50.848;4.652;2024-01-15T11:48:06;157.63;;;144.65;;
34836;SDS011;21053;50.848;4.652;2024-01-15T11:50:53;130.10;;;119.35;;
34836;SDS011;21053;50.848;4.652;2024-01-15T11:56:16;163.23;;;149.65;;
34836;SDS011;21053;50.848;4.652;2024-01-15T11:58:46;214.05;;;195.75;;
34836;SDS011;21053;50.848;4.652;2024-01-15T12:03:41;193.13;;;176.30;;
34836;SDS011;21053;50.848;4.652;2024-01-15T12:06:08;164.75;;;150.40;;
34836;SDS011;21053;50.848;4.652;2024-01-15T12:08:35;135.43;;;123.30;;
34836;SDS011;21053;50.848;4.652;2024-01-15T12:11:06;146.82;;;134.30;;
34836;SDS011;21053;50.848;4.652;2024-01-15T12:13:39;126.65;;;115.97;;
34836;SDS011;21053;50.848;4.652;2024-01-15T12:18:35;97.85;;;89.93;;
34836;SDS011;21053;50.848;4.652;2024-01-15T12:21:03;97.95;;;90.10;;
34836;SDS011;21053;50.848;4.652;2024-01-15T12:23:29;94.22;;;86.45;;
34836;SDS011;21053;50.848;4.652;2024-01-15T12:25:57;111.15;;;102.22;;
34836;SDS011;21053;50.848;4.652;2024-01-15T12:28:29;86.93;;;80.13;;
34836;SDS011;21053;50.848;4.652;2024-01-15T12:30:58;93.45;;;85.20;;
34836;SDS011;21053;50.848;4.652;2024-01-15T12:33:27;128.85;;;117.30;;
34836;SDS011;21053;50.848;4.652;2024-01-15T12:35:56;167.75;;;153.85;;
34836;SDS011;21053;50.848;4.652;2024-01-15T12:38:22;249.48;;;229.35;;
34836;SDS011;21053;50.848;4.652;2024-01-15T12:40:48;178.50;;;164.23;;
34836;SDS011;21053;50.848;4.652;2024-01-15T12:43:17;129.10;;;118.90;;
34836;SDS011;21053;50.848;4.652;2024-01-15T12:45:45;90.88;;;83.60;;
34836;SDS011;21053;50.848;4.652;2024-01-15T12:50:44;87.82;;;80.75;;
34836;SDS011;21053;50.848;4.652;2024-01-15T12:55:41;76.95;;;70.60;;
34836;SDS011;21053;50.848;4.652;2024-01-15T13:00:36;104.25;;;95.55;;
34836;SDS011;21053;50.848;4.652;2024-01-15T13:03:02;127.85;;;116.55;;
34836;SDS011;21053;50.848;4.652;2024-01-15T13:05:29;133.68;;;120.90;;
34836;SDS011;21053;50.848;4.652;2024-01-15T13:07:59;96.95;;;88.57;;
34836;SDS011;21053;50.848;4.652;2024-01-15T13:10:25;105.13;;;95.90;;
34836;SDS011;21053;50.848;4.652;2024-01-15T13:12:54;96.28;;;88.18;;
34836;SDS011;21053;50.848;4.652;2024-01-15T13:15:21;94.68;;;85.30;;
34836;SDS011;21053;50.848;4.652;2024-01-15T13:17:47;79.18;;;72.60;;
34836;SDS011;21053;50.848;4.652;2024-01-15T13:20:15;81.70;;;75.10;;
34836;SDS011;21053;50.848;4.652;2024-01-15T13:22:42;90.38;;;82.90;;
34836;SDS011;21053;50.848;4.652;2024-01-15T13:27:38;78.75;;;72.53;;
34836;SDS011;21053;50.848;4.652;2024-01-15T13:30:05;104.60;;;96.32;;
34836;SDS011;21053;50.848;4.652;2024-01-15T13:32:32;95.32;;;87.47;;
34836;SDS011;21053;50.848;4.652;2024-01-15T13:34:59;111.43;;;102.35;;
34836;SDS011;21053;50.848;4.652;2024-01-15T13:37:25;112.55;;;103.45;;
34836;SDS011;21053;50.848;4.652;2024-01-15T13:39:52;100.93;;;93.05;;
34836;SDS011;21053;50.848;4.652;2024-01-15T13:44:47;91.75;;;84.63;;
34836;SDS011;21053;50.848;4.652;2024-01-15T13:47:13;98.25;;;90.65;;
34836;SDS011;21053;50.848;4.652;2024-01-15T13:49:40;81.50;;;75.25;;
34836;SDS011;21053;50.848;4.652;2024-01-15T13:52:07;98.25;;;90.72;;
34836;SDS011;21053;50.848;4.652;2024-01-15T13:57:03;118.53;;;109.30;;
34836;SDS011;21053;50.848;4.652;2024-01-15T13:59:31;121.65;;;112.18;;
34836;SDS011;21053;50.848;4.652;2024-01-15T14:01:57;123.57;;;113.88;;
34836;SDS011;21053;50.848;4.652;2024-01-15T14:04:24;124.63;;;114.90;;
34836;SDS011;21053;50.848;4.652;2024-01-15T14:09:18;128.07;;;118.07;;
34836;SDS011;21053;50.848;4.652;2024-01-15T14:11:48;143.10;;;131.82;;
34836;SDS011;21053;50.848;4.652;2024-01-15T14:14:14;143.63;;;132.00;;
34836;SDS011;21053;50.848;4.652;2024-01-15T14:16:39;127.50;;;117.40;;
34836;SDS011;21053;50.848;4.652;2024-01-15T14:21:35;143.77;;;132.00;;
34836;SDS011;21053;50.848;4.652;2024-01-15T14:24:02;126.60;;;116.45;;
34836;SDS011;21053;50.848;4.652;2024-01-15T14:26:28;140.65;;;129.32;;
34836;SDS011;21053;50.848;4.652;2024-01-15T14:28:54;121.88;;;111.88;;
34836;SDS011;21053;50.848;4.652;2024-01-15T14:33:54;118.82;;;109.40;;
34836;SDS011;21053;50.848;4.652;2024-01-15T14:36:21;159.07;;;144.27;;
34836;SDS011;21053;50.848;4.652;2024-01-15T14:38:47;153.00;;;140.27;;
34836;SDS011;21053;50.848;4.652;2024-01-15T14:43:44;144.98;;;133.05;;
34836;SDS011;21053;50.848;4.652;2024-01-15T14:46:12;132.85;;;122.00;;
34836;SDS011;21053;50.848;4.652;2024-01-15T14:48:38;130.80;;;120.25;;
34836;SDS011;21053;50.848;4.652;2024-01-15T14:53:34;118.05;;;108.53;;
34836;SDS011;21053;50.848;4.652;2024-01-15T14:56:01;136.15;;;125.03;;
34836;SDS011;21053;50.848;4.652;2024-01-15T14:58:29;122.05;;;112.25;;
34836;SDS011;21053;50.848;4.652;2024-01-15T15:00:55;141.20;;;129.75;;
34836;SDS011;21053;50.848;4.652;2024-01-15T15:03:23;140.27;;;128.77;;
34836;SDS011;21053;50.848;4.652;2024-01-15T15:05:50;127.38;;;116.90;;
34836;SDS011;21053;50.848;4.652;2024-01-15T15:08:16;126.43;;;116.20;;
34836;SDS011;21053;50.848;4.652;2024-01-15T15:10:42;128.15;;;117.70;;
34836;SDS011;21053;50.848;4.652;2024-01-15T15:13:08;121.55;;;111.05;;
34836;SDS011;21053;50.848;4.652;2024-01-15T15:15:36;119.65;;;110.03;;
34836;SDS011;21053;50.848;4.652;2024-01-15T15:18:04;145.40;;;133.63;;
34836;SDS011;21053;50.848;4.652;2024-01-15T15:20:36;114.93;;;105.65;;
34836;SDS011;21053;50.848;4.652;2024-01-15T15:23:06;122.70;;;112.90;;
34836;SDS011;21053;50.848;4.652;2024-01-15T15:25:36;130.30;;;119.72;;
34836;SDS011;21053;50.848;4.652;2024-01-15T15:28:03;129.90;;;119.45;;
34836;SDS011;21053;50.848;4.652;2024-01-15T15:30:34;127.68;;;117.28;;
34836;SDS011;21053;50.848;4.652;2024-01-15T15:32:59;123.10;;;113.22;;
34836;SDS011;21053;50.848;4.652;2024-01-15T15:35:25;143.18;;;131.63;;
34836;SDS011;21053;50.848;4.652;2024-01-15T15:37:52;125.60;;;115.43;;
34836;SDS011;21053;50.848;4.652;2024-01-15T15:40:19;138.48;;;127.30;;
34836;SDS011;21053;50.848;4.652;2024-01-15T15:42:48;141.55;;;130.05;;
34836;SDS011;21053;50.848;4.652;2024-01-15T15:45:17;141.00;;;129.65;;
34836;SDS011;21053;50.848;4.652;2024-01-15T15:50:12;136.45;;;125.38;;